createdAt,value
2018-07-04T00:01:13.345Z,22.96
2018-07-04T00:03:52.902Z,23.02
2018-07-04T00:06:38.142Z,22.98
2018-07-04T00:09:23.574Z,22.92
2018-07-04T00:12:08.961Z,23.00
2018-07-04T00:14:54.550Z,23.08
2018-07-04T00:17:40.533Z,23.07
2018-07-04T00:20:31.925Z,23.06
2018-07-04T00:23:17.322Z,23.02
2018-07-04T00:26:02.705Z,22.87
2018-07-04T00:28:48.192Z,22.92
2018-07-04T00:31:34.090Z,22.93
2018-07-04T00:34:19.596Z,22.90
2018-07-04T00:37:05.087Z,22.84
2018-07-04T00:39:50.420Z,22.75
2018-07-04T00:42:35.772Z,22.75
2018-07-04T00:45:21.246Z,22.81
2018-07-04T00:48:06.552Z,22.85
2018-07-04T00:50:52.016Z,22.70
2018-07-04T00:53:37.718Z,22.72
2018-07-04T00:56:23.339Z,22.75
2018-07-04T00:59:08.906Z,22.65
2018-07-04T01:01:54.535Z,22.59
2018-07-04T01:04:40.363Z,22.45
2018-07-04T01:07:25.788Z,22.45
2018-07-04T01:10:10.997Z,22.52
2018-07-04T01:13:00.625Z,22.53
2018-07-04T01:15:45.967Z,22.28
2018-07-04T01:18:31.298Z,22.40
2018-07-04T01:21:16.881Z,22.37
2018-07-04T01:24:02.310Z,22.34
2018-07-04T01:26:47.930Z,22.40
2018-07-04T01:29:33.506Z,22.22
2018-07-04T01:32:19.136Z,22.23
2018-07-04T01:35:04.666Z,22.34
2018-07-04T01:37:49.985Z,22.29
2018-07-04T01:40:35.328Z,22.17
2018-07-04T01:43:20.673Z,22.16
2018-07-04T01:46:06.062Z,22.21
2018-07-04T01:48:51.549Z,22.16
2018-07-04T01:51:36.937Z,22.14
2018-07-04T01:54:22.386Z,22.03
2018-07-04T01:57:07.731Z,22.15
2018-07-04T01:59:53.203Z,22.19
2018-07-04T02:02:38.609Z,22.14
2018-07-04T02:05:24.002Z,22.22
2018-07-04T02:08:09.633Z,22.08
2018-07-04T02:10:49.231Z,22.03
2018-07-04T02:13:34.756Z,22.11
2018-07-04T02:16:20.196Z,22.04
2018-07-04T02:19:05.665Z,22.07
2018-07-04T02:21:51.048Z,22.08
2018-07-04T02:24:36.550Z,22.04
2018-07-04T02:27:22.216Z,21.96
2018-07-04T02:30:07.718Z,21.91
2018-07-04T02:32:53.069Z,21.89
2018-07-04T02:35:38.478Z,21.84
2018-07-04T02:38:23.981Z,21.81
2018-07-04T02:41:09.533Z,21.72
2018-07-04T02:43:54.988Z,21.71
2018-07-04T02:46:40.465Z,21.67
2018-07-04T02:49:25.973Z,21.71
2018-07-04T02:52:11.352Z,21.70
2018-07-04T02:54:56.989Z,21.69
2018-07-04T02:57:42.413Z,21.67
2018-07-04T03:00:27.774Z,21.59
2018-07-04T03:03:13.209Z,21.68
2018-07-04T03:05:58.590Z,21.67
2018-07-04T03:08:44.202Z,21.66
2018-07-04T03:11:29.820Z,21.68
2018-07-04T03:14:15.337Z,21.60
2018-07-04T03:17:00.698Z,21.47
2018-07-04T03:19:46.139Z,21.46
2018-07-04T03:22:31.885Z,21.42
2018-07-04T03:25:17.305Z,21.55
2018-07-04T03:28:02.594Z,21.47
2018-07-04T03:30:48.060Z,21.32
2018-07-04T03:33:33.582Z,21.40
2018-07-04T03:36:19.005Z,21.34
2018-07-04T03:39:05.740Z,21.42
2018-07-04T03:41:51.341Z,21.43
2018-07-04T03:44:36.803Z,21.58
2018-07-04T03:47:22.360Z,21.47
2018-07-04T03:50:07.870Z,21.44
2018-07-04T03:52:53.364Z,21.38
2018-07-04T03:55:39.024Z,21.38
2018-07-04T03:58:24.541Z,21.42
2018-07-04T04:01:04.083Z,21.28
2018-07-04T04:03:43.615Z,21.38
2018-07-04T04:06:28.943Z,21.35
2018-07-04T04:09:14.376Z,21.34
2018-07-04T04:11:53.923Z,21.37
2018-07-04T04:14:39.688Z,21.49
2018-07-04T04:17:25.067Z,21.42
2018-07-04T04:20:10.629Z,21.53
2018-07-04T04:22:56.152Z,21.59
2018-07-04T04:25:35.681Z,21.54
2018-07-04T04:28:21.067Z,21.45
2018-07-04T04:31:06.493Z,21.47
2018-07-04T04:33:52.113Z,21.39
2018-07-04T04:36:37.690Z,21.42
2018-07-04T04:39:23.656Z,21.65
2018-07-04T04:42:09.092Z,21.59
2018-07-04T04:44:48.716Z,21.70
2018-07-04T04:47:34.249Z,21.84
2018-07-04T04:50:19.769Z,21.88
2018-07-04T04:53:05.252Z,21.88
2018-07-04T04:55:50.709Z,22.10
2018-07-04T04:58:36.264Z,22.04
2018-07-04T05:01:21.959Z,21.98
2018-07-04T05:04:07.593Z,22.11
2018-07-04T05:06:53.184Z,22.19
2018-07-04T05:09:38.658Z,22.27
2018-07-04T05:12:24.029Z,22.18
2018-07-04T05:15:09.603Z,22.47
2018-07-04T05:17:55.085Z,22.35
2018-07-04T05:20:40.623Z,22.35
2018-07-04T05:23:25.873Z,22.36
2018-07-04T05:26:05.816Z,22.51
2018-07-04T05:28:51.063Z,22.64
2018-07-04T05:31:36.821Z,22.74
2018-07-04T05:34:22.196Z,22.79
2018-07-04T05:37:07.648Z,22.83
2018-07-04T05:39:47.088Z,22.94
2018-07-04T05:42:32.532Z,23.17
2018-07-04T05:45:17.962Z,23.04
2018-07-04T05:48:03.080Z,23.19
2018-07-04T05:50:48.457Z,23.42
2018-07-04T05:53:33.822Z,23.44
2018-07-04T05:56:19.352Z,23.42
2018-07-04T05:59:04.776Z,23.41
2018-07-04T06:01:50.191Z,23.52
2018-07-04T06:04:35.623Z,23.60
2018-07-04T06:07:21.350Z,23.76
2018-07-04T06:10:06.934Z,23.87
2018-07-04T06:12:52.280Z,24.06
2018-07-04T06:15:37.991Z,24.07
2018-07-04T06:18:23.753Z,24.29
2018-07-04T06:21:12.719Z,24.48
2018-07-04T06:23:58.590Z,24.70
2018-07-04T06:26:38.481Z,24.80
2018-07-04T06:29:18.131Z,24.91
2018-07-04T06:32:03.591Z,25.08
2018-07-04T06:34:49.060Z,25.29
2018-07-04T06:37:36.210Z,25.39
2018-07-04T06:40:02.986Z,25.39
2018-07-04T06:42:29.620Z,25.49
2018-07-04T06:44:57.892Z,25.44
2018-07-04T06:47:25.126Z,25.36
2018-07-04T06:49:51.905Z,25.34
2018-07-04T06:52:20.771Z,25.48
2018-07-04T06:54:48.314Z,25.52
2018-07-04T06:57:15.160Z,25.69
2018-07-04T06:59:41.838Z,25.76
2018-07-04T07:02:11.616Z,25.73
2018-07-04T07:04:57.997Z,25.71
2018-07-04T07:07:43.535Z,25.80
2018-07-04T07:10:28.956Z,26.00
2018-07-04T07:13:14.265Z,26.11
2018-07-04T07:15:53.974Z,26.24
2018-07-04T07:18:39.473Z,26.37
2018-07-04T07:21:24.944Z,26.46
2018-07-04T07:24:10.316Z,26.55
2018-07-04T07:26:55.612Z,26.53
2018-07-04T07:29:41.203Z,26.50
2018-07-04T07:32:20.692Z,26.57
2018-07-04T07:35:06.222Z,26.66
2018-07-04T07:37:45.655Z,26.82
2018-07-04T07:40:31.137Z,26.86
2018-07-04T07:43:16.725Z,26.95
2018-07-04T07:46:02.996Z,26.97
2018-07-04T07:48:48.624Z,27.03
2018-07-04T07:51:34.084Z,27.10
2018-07-04T07:54:19.616Z,27.07
2018-07-04T07:56:59.186Z,27.08
2018-07-04T07:59:44.540Z,27.22
2018-07-04T08:02:29.852Z,27.42
2018-07-04T08:05:15.846Z,27.43
2018-07-04T08:08:01.275Z,27.35
2018-07-04T08:10:47.007Z,27.44
2018-07-04T08:13:33.259Z,27.54
2018-07-04T08:16:19.568Z,27.67
2018-07-04T08:19:07.022Z,27.60
2018-07-04T08:21:57.045Z,27.81
2018-07-04T08:24:43.713Z,27.81
2018-07-04T08:27:29.162Z,27.84
2018-07-04T08:30:14.656Z,27.90
2018-07-04T08:33:00.150Z,28.00
2018-07-04T08:35:45.865Z,27.91
2018-07-04T08:38:31.480Z,28.09
2018-07-04T08:41:16.909Z,28.08
2018-07-04T08:44:02.263Z,28.22
2018-07-04T08:46:47.650Z,28.33
2018-07-04T08:49:33.111Z,28.45
2018-07-04T08:52:18.441Z,28.46
2018-07-04T08:55:03.780Z,28.53
2018-07-04T08:57:49.224Z,28.53
2018-07-04T09:00:28.705Z,28.58
2018-07-04T09:03:14.112Z,28.73
2018-07-04T09:05:59.458Z,29.00
2018-07-04T09:08:44.856Z,29.13
2018-07-04T09:11:30.437Z,29.15
2018-07-04T09:14:15.968Z,29.08
2018-07-04T09:17:01.209Z,29.00
2018-07-04T09:19:40.741Z,28.95
2018-07-04T09:22:26.315Z,29.01
2018-07-04T09:25:11.692Z,29.21
2018-07-04T09:27:57.376Z,29.31
2018-07-04T09:30:42.881Z,29.34
2018-07-04T09:33:28.328Z,29.26
2018-07-04T09:36:13.762Z,29.27
2018-07-04T09:38:59.496Z,29.10
2018-07-04T09:41:46.997Z,29.17
2018-07-04T09:44:32.602Z,29.29
2018-07-04T09:47:18.598Z,29.35
2018-07-04T09:50:04.067Z,29.59
2018-07-04T09:52:49.526Z,29.70
2018-07-04T09:55:35.063Z,29.83
2018-07-04T09:58:20.525Z,29.92
2018-07-04T10:01:11.534Z,30.07
2018-07-04T10:03:57.099Z,30.24
2018-07-04T10:06:43.342Z,30.39
2018-07-04T10:09:23.321Z,30.50
2018-07-04T10:12:08.908Z,30.56
2018-07-04T10:14:54.428Z,30.42
2018-07-04T10:17:39.962Z,30.32
2018-07-04T10:20:25.553Z,30.22
2018-07-04T10:23:05.263Z,30.24
2018-07-04T10:25:50.823Z,30.23
2018-07-04T10:28:36.450Z,30.22
2018-07-04T10:31:21.994Z,30.22
2018-07-04T10:34:07.724Z,30.18
2018-07-04T10:36:47.255Z,30.18
2018-07-04T10:39:26.943Z,30.26
2018-07-04T10:42:12.399Z,30.36
2018-07-04T10:44:58.070Z,30.33
2018-07-04T10:47:37.750Z,30.33
2018-07-04T10:50:23.130Z,30.39
2018-07-04T10:53:08.730Z,30.25
2018-07-04T10:55:54.228Z,30.27
2018-07-04T10:58:39.981Z,30.33
2018-07-04T11:01:25.525Z,30.35
2018-07-04T11:04:05.244Z,30.37
2018-07-04T11:06:50.726Z,30.41
2018-07-04T11:09:36.190Z,30.43
2018-07-04T11:12:21.964Z,30.50
2018-07-04T11:15:07.454Z,30.62
2018-07-04T11:17:53.171Z,30.93
2018-07-04T11:20:38.565Z,31.11
2018-07-04T11:23:18.074Z,31.39
2018-07-04T11:26:03.437Z,31.44
2018-07-04T11:28:48.927Z,31.32
2018-07-04T11:31:34.520Z,31.43
2018-07-04T11:34:20.010Z,31.43
2018-07-04T11:37:05.629Z,31.37
2018-07-04T11:39:51.197Z,30.94
2018-07-04T11:42:30.736Z,30.78
2018-07-04T11:45:10.372Z,30.63
2018-07-04T11:47:37.473Z,30.50
2018-07-04T11:50:05.087Z,30.36
2018-07-04T11:52:32.143Z,30.30
2018-07-04T11:54:58.856Z,30.35
2018-07-04T11:57:25.527Z,30.43
2018-07-04T11:59:52.213Z,30.50
2018-07-04T12:02:18.874Z,30.49
2018-07-04T12:05:04.340Z,30.59
2018-07-04T12:07:30.961Z,30.75
2018-07-04T12:09:57.631Z,30.93
2018-07-04T12:12:24.269Z,31.15
2018-07-04T12:14:51.079Z,31.40
2018-07-04T12:17:17.919Z,31.41
2018-07-04T12:19:44.717Z,31.43
2018-07-04T12:22:11.912Z,31.49
2018-07-04T12:24:38.736Z,31.43
2018-07-04T12:27:05.366Z,31.45
2018-07-04T12:29:32.060Z,31.48
2018-07-04T12:31:58.749Z,31.27
2018-07-04T12:34:25.441Z,31.07
2018-07-04T12:36:52.104Z,31.09
2018-07-04T12:39:18.731Z,31.10
2018-07-04T12:41:45.381Z,30.91
2018-07-04T12:44:12.043Z,30.86
2018-07-04T12:46:38.694Z,30.83
2018-07-04T12:49:05.487Z,30.75
2018-07-04T12:51:33.572Z,30.62
2018-07-04T12:54:05.959Z,30.58
2018-07-04T12:56:51.611Z,30.53
2018-07-04T12:59:37.073Z,30.53
2018-07-04T13:02:22.534Z,30.55
2018-07-04T13:05:08.111Z,30.56
2018-07-04T13:07:53.562Z,30.62
2018-07-04T13:10:39.039Z,30.61
2018-07-04T13:13:18.644Z,30.59
2018-07-04T13:16:04.693Z,30.69
2018-07-04T13:18:50.112Z,30.81
2018-07-04T13:21:35.416Z,30.93
2018-07-04T13:24:20.788Z,30.94
2018-07-04T13:27:06.252Z,31.01
2018-07-04T13:29:51.539Z,30.96
2018-07-04T13:32:37.022Z,30.93
2018-07-04T13:35:22.544Z,31.06
2018-07-04T13:38:08.055Z,31.05
2018-07-04T13:40:53.463Z,31.12
2018-07-04T13:43:38.942Z,31.18
2018-07-04T13:46:24.247Z,31.21
2018-07-04T13:49:04.040Z,31.27
2018-07-04T13:51:49.720Z,31.33
2018-07-04T13:54:35.099Z,31.25
2018-07-04T13:57:20.750Z,31.16
2018-07-04T14:00:06.168Z,31.17
2018-07-04T14:02:51.773Z,31.11
2018-07-04T14:05:37.117Z,30.91
2018-07-04T14:08:22.611Z,30.99
2018-07-04T14:11:08.325Z,31.01
2018-07-04T14:13:53.879Z,30.96
2018-07-04T14:16:39.299Z,31.10
2018-07-04T14:19:19.001Z,31.07
2018-07-04T14:22:04.396Z,31.04
2018-07-04T14:24:49.838Z,31.11
2018-07-04T14:27:35.269Z,31.07
2018-07-04T14:30:14.832Z,30.98
2018-07-04T14:33:00.384Z,31.10
2018-07-04T14:35:45.883Z,31.06
2018-07-04T14:38:25.461Z,31.13
2018-07-04T14:41:10.751Z,30.97
2018-07-04T14:43:56.207Z,30.88
2018-07-04T14:46:41.480Z,30.96
2018-07-04T14:49:26.820Z,30.96
2018-07-04T14:52:12.564Z,31.05
2018-07-04T14:54:58.408Z,31.08
2018-07-04T14:57:38.030Z,31.11
2018-07-04T15:00:23.480Z,31.14
2018-07-04T15:03:09.271Z,31.11
2018-07-04T15:05:54.530Z,31.20
2018-07-04T15:08:40.290Z,31.30
2018-07-04T15:11:25.689Z,31.39
2018-07-04T15:14:11.123Z,31.31
2018-07-04T15:16:56.564Z,31.34
2018-07-04T15:19:42.096Z,31.41
2018-07-04T15:22:27.576Z,31.25
2018-07-04T15:25:13.034Z,31.27
2018-07-04T15:27:58.732Z,31.22
2018-07-04T15:30:44.171Z,31.18
2018-07-04T15:33:29.532Z,31.06
2018-07-04T15:36:15.235Z,31.00
2018-07-04T15:39:00.588Z,30.91
2018-07-04T15:41:46.366Z,30.87
2018-07-04T15:44:31.791Z,30.81
2018-07-04T15:47:17.165Z,30.76
2018-07-04T15:49:57.395Z,30.72
2018-07-04T15:52:43.205Z,30.70
2018-07-04T15:55:28.677Z,30.60
2018-07-04T15:58:13.972Z,30.53
2018-07-04T16:00:59.483Z,30.49
2018-07-04T16:03:44.877Z,30.51
2018-07-04T16:06:30.301Z,30.50
2018-07-04T16:09:15.829Z,30.56
2018-07-04T16:12:01.084Z,30.50
2018-07-04T16:14:46.736Z,30.47
2018-07-04T16:17:32.208Z,30.46
2018-07-04T16:20:17.432Z,30.40
2018-07-04T16:23:02.879Z,30.41
2018-07-04T16:25:43.536Z,30.48
2018-07-04T16:28:29.146Z,30.50
2018-07-04T16:31:14.748Z,30.41
2018-07-04T16:34:00.084Z,30.39
2018-07-04T16:36:45.760Z,30.37
2018-07-04T16:39:31.345Z,30.31
2018-07-04T16:42:16.795Z,30.25
2018-07-04T16:44:56.880Z,30.18
2018-07-04T16:47:42.329Z,30.13
2018-07-04T16:50:21.997Z,30.05
2018-07-04T16:53:07.259Z,29.95
2018-07-04T16:55:52.688Z,29.90
2018-07-04T16:58:38.412Z,29.80
2018-07-04T17:01:18.146Z,29.72
2018-07-04T17:04:03.596Z,29.69
2018-07-04T17:06:49.079Z,29.69
2018-07-04T17:09:34.475Z,29.75
2018-07-04T17:12:19.899Z,29.78
2018-07-04T17:15:05.714Z,29.85
2018-07-04T17:17:50.905Z,29.94
2018-07-04T17:20:36.361Z,29.98
2018-07-04T17:23:21.770Z,29.99
2018-07-04T17:26:07.367Z,30.05
2018-07-04T17:28:46.733Z,29.98
2018-07-04T17:31:32.492Z,30.01
2018-07-04T17:34:12.266Z,29.96
2018-07-04T17:36:57.709Z,29.90
2018-07-04T17:39:43.259Z,29.89
2018-07-04T17:42:22.784Z,29.86
2018-07-04T17:45:08.084Z,29.75
2018-07-04T17:47:53.658Z,29.77
2018-07-04T17:50:39.130Z,29.68
2018-07-04T17:53:24.587Z,29.68
2018-07-04T17:56:09.994Z,29.56
2018-07-04T17:58:55.619Z,29.47
2018-07-04T18:01:41.102Z,29.42
2018-07-04T18:04:26.465Z,29.27
2018-07-04T18:07:11.924Z,29.15
2018-07-04T18:09:57.286Z,29.05
2018-07-04T18:12:42.689Z,28.91
2018-07-04T18:15:28.269Z,28.85
2018-07-04T18:18:13.657Z,28.88
2018-07-04T18:21:03.561Z,28.85
2018-07-04T18:23:43.404Z,28.86
2018-07-04T18:26:23.215Z,28.87
2018-07-04T18:29:09.000Z,28.85
2018-07-04T18:31:54.562Z,28.88
2018-07-04T18:34:40.056Z,28.86
2018-07-04T18:37:26.080Z,28.79
2018-07-04T18:40:11.367Z,28.72
2018-07-04T18:42:56.706Z,28.64
2018-07-04T18:45:42.090Z,28.60
2018-07-04T18:48:27.987Z,28.56
2018-07-04T18:51:13.453Z,28.53
2018-07-04T18:53:59.113Z,28.43
2018-07-04T18:56:44.567Z,28.39
2018-07-04T18:59:29.951Z,28.31
2018-07-04T19:02:09.689Z,28.27
2018-07-04T19:04:54.897Z,28.19
2018-07-04T19:07:40.418Z,28.09
2018-07-04T19:10:26.021Z,28.03
2018-07-04T19:13:11.396Z,27.98
2018-07-04T19:15:56.964Z,27.90
2018-07-04T19:18:42.486Z,27.83
2018-07-04T19:21:27.996Z,27.77
2018-07-04T19:24:13.313Z,27.73
2018-07-04T19:26:58.848Z,27.67
2018-07-04T19:29:44.360Z,27.58
2018-07-04T19:32:29.944Z,27.55
2018-07-04T19:35:15.487Z,27.54
2018-07-04T19:38:00.936Z,27.47
2018-07-04T19:40:40.505Z,27.37
2018-07-04T19:43:20.258Z,27.33
2018-07-04T19:46:05.684Z,27.26
2018-07-04T19:48:51.175Z,27.19
2018-07-04T19:51:36.405Z,27.15
2018-07-04T19:54:21.994Z,27.15
2018-07-04T19:57:07.333Z,27.05
2018-07-04T19:59:46.981Z,27.01
2018-07-04T20:02:26.791Z,26.93
2018-07-04T20:05:12.263Z,26.86
2018-07-04T20:07:57.601Z,26.78
2018-07-04T20:10:43.072Z,26.73
2018-07-04T20:13:28.693Z,26.65
2018-07-04T20:16:14.089Z,26.60
2018-07-04T20:18:59.671Z,26.53
2018-07-04T20:21:45.283Z,26.51
2018-07-04T20:24:30.779Z,26.45
2018-07-04T20:27:16.232Z,26.38
2018-07-04T20:30:01.804Z,26.34
2018-07-04T20:32:47.170Z,26.28
2018-07-04T20:35:32.615Z,26.23
2018-07-04T20:38:17.977Z,26.18
2018-07-04T20:41:03.461Z,26.17
2018-07-04T20:43:49.110Z,26.12
2018-07-04T20:46:34.657Z,26.12
2018-07-04T20:49:20.295Z,26.09
2018-07-04T20:52:05.960Z,26.10
2018-07-04T20:54:51.440Z,26.10
2018-07-04T20:57:36.997Z,26.06
2018-07-04T21:00:23.147Z,26.03
2018-07-04T21:03:08.734Z,26.02
2018-07-04T21:05:48.157Z,26.00
2018-07-04T21:08:27.667Z,25.96
2018-07-04T21:11:15.631Z,25.98
2018-07-04T21:14:01.401Z,25.97
2018-07-04T21:16:46.852Z,25.88
2018-07-04T21:19:32.348Z,25.80
2018-07-04T21:22:17.756Z,25.76
2018-07-04T21:24:57.313Z,25.81
2018-07-04T21:27:42.696Z,25.78
2018-07-04T21:30:28.202Z,25.79
2018-07-04T21:33:13.607Z,25.71
2018-07-04T21:35:59.340Z,25.69
2018-07-04T21:38:44.799Z,25.67
2018-07-04T21:41:30.425Z,25.68
2018-07-04T21:44:15.962Z,25.63
2018-07-04T21:47:01.572Z,25.65
2018-07-04T21:49:41.132Z,25.65
2018-07-04T21:52:26.594Z,25.61
2018-07-04T21:55:11.852Z,25.58
2018-07-04T21:58:06.432Z,25.66
2018-07-04T22:00:52.468Z,25.63
2018-07-04T22:03:38.125Z,25.54
2018-07-04T22:06:23.700Z,25.55
2018-07-04T22:09:09.352Z,25.48
2018-07-04T22:11:55.051Z,25.42
2018-07-04T22:14:41.293Z,25.40
2018-07-04T22:17:26.998Z,25.34
2018-07-04T22:20:12.696Z,25.32
2018-07-04T22:22:58.152Z,25.27
2018-07-04T22:25:43.517Z,25.23
2018-07-04T22:28:29.079Z,25.19
2018-07-04T22:31:14.735Z,25.20
2018-07-04T22:34:00.300Z,25.13
2018-07-04T22:36:45.876Z,25.11
2018-07-04T22:39:31.193Z,25.16
2018-07-04T22:42:16.982Z,25.16
2018-07-04T22:45:02.597Z,24.97
2018-07-04T22:47:42.079Z,24.85
2018-07-04T22:50:27.432Z,24.91
2018-07-04T22:53:13.334Z,24.82
2018-07-04T22:55:58.912Z,24.78
2018-07-04T22:58:44.625Z,24.78
2018-07-04T23:01:30.181Z,24.76
2018-07-04T23:04:15.760Z,24.56
2018-07-04T23:07:01.403Z,24.52
2018-07-04T23:09:47.111Z,24.63
2018-07-04T23:12:32.532Z,24.59
2018-07-04T23:15:17.888Z,24.47
2018-07-04T23:18:03.876Z,24.55
2018-07-04T23:20:49.374Z,24.51
2018-07-04T23:23:35.065Z,24.37
2018-07-04T23:26:20.615Z,24.30
2018-07-04T23:29:06.134Z,24.28
2018-07-04T23:31:51.496Z,24.31
2018-07-04T23:34:36.891Z,24.23
2018-07-04T23:37:22.181Z,24.16
2018-07-04T23:40:07.620Z,24.15
2018-07-04T23:42:53.062Z,24.10
2018-07-04T23:45:32.737Z,24.11
2018-07-04T23:48:18.457Z,24.11
2018-07-04T23:51:04.139Z,23.99
2018-07-04T23:53:49.634Z,24.14
2018-07-04T23:56:35.329Z,24.03
2018-07-04T23:59:20.880Z,24.12
